createdAt,value
2018-04-08T00:00:14.132Z,80.10
2018-04-08T00:02:42.444Z,80.00
2018-04-08T00:05:10.786Z,79.90
2018-04-08T00:07:39.095Z,80.00
2018-04-08T00:10:07.434Z,80.00
2018-04-08T00:12:35.752Z,80.00
2018-04-08T00:15:04.084Z,80.10
2018-04-08T00:17:32.410Z,80.40
2018-04-08T00:20:00.750Z,80.80
2018-04-08T00:22:29.074Z,81.00
2018-04-08T00:24:57.430Z,81.20
2018-04-08T00:27:25.740Z,81.50
2018-04-08T00:29:54.072Z,81.60
2018-04-08T00:32:22.391Z,81.70
2018-04-08T00:34:50.718Z,81.70
2018-04-08T00:37:19.043Z,81.60
2018-04-08T00:39:47.378Z,81.70
2018-04-08T00:42:15.691Z,81.70
2018-04-08T00:44:44.027Z,82.60
2018-04-08T00:47:12.342Z,81.70
2018-04-08T00:49:40.692Z,81.50
2018-04-08T00:52:09.012Z,81.30
2018-04-08T00:54:37.328Z,81.30
2018-04-08T00:57:05.664Z,81.10
2018-04-08T00:59:33.980Z,81.00
2018-04-08T01:02:02.303Z,80.80
2018-04-08T01:04:30.626Z,80.90
2018-04-08T01:06:58.968Z,80.70
2018-04-08T01:09:27.306Z,80.70
2018-04-08T01:11:55.632Z,80.50
2018-04-08T01:14:23.943Z,81.30
2018-04-08T01:16:52.290Z,80.50
2018-04-08T01:19:20.609Z,80.60
2018-04-08T01:21:48.946Z,80.70
2018-04-08T01:24:17.261Z,80.60
2018-04-08T01:26:45.591Z,80.70
2018-04-08T01:29:13.898Z,80.50
2018-04-08T01:31:42.238Z,80.60
2018-04-08T01:34:10.560Z,80.60
2018-04-08T01:36:38.897Z,80.80
2018-04-08T01:39:07.212Z,81.00
2018-04-08T01:41:35.550Z,81.10
2018-04-08T01:44:04.178Z,81.30
2018-04-08T01:46:32.515Z,81.20
2018-04-08T01:49:00.827Z,81.00
2018-04-08T01:51:29.165Z,80.80
2018-04-08T01:53:57.481Z,80.80
2018-04-08T01:56:25.824Z,80.80
2018-04-08T01:58:54.136Z,80.90
2018-04-08T02:01:22.506Z,81.00
2018-04-08T02:03:50.818Z,81.00
2018-04-08T02:06:19.162Z,80.90
2018-04-08T02:08:47.470Z,81.00
2018-04-08T02:11:15.808Z,80.90
2018-04-08T02:13:44.117Z,81.10
2018-04-08T02:16:11.691Z,81.70
2018-04-08T02:18:40.015Z,80.90
2018-04-08T02:21:08.347Z,81.10
2018-04-08T02:23:36.651Z,81.10
2018-04-08T02:26:05.001Z,81.40
2018-04-08T02:28:33.315Z,81.60
2018-04-08T02:31:01.673Z,81.70
2018-04-08T02:33:29.983Z,81.70
2018-04-08T02:35:58.302Z,81.80
2018-04-08T02:38:26.644Z,81.80
2018-04-08T02:40:54.962Z,82.00
2018-04-08T02:43:23.303Z,82.10
2018-04-08T02:45:51.631Z,82.30
2018-04-08T02:48:19.968Z,82.40
2018-04-08T02:50:48.283Z,82.40
2018-04-08T02:53:16.635Z,82.40
2018-04-08T02:55:44.962Z,82.20
2018-04-08T02:58:13.942Z,82.30
2018-04-08T03:00:42.263Z,82.30
2018-04-08T03:03:10.625Z,83.20
2018-04-08T03:05:38.937Z,82.40
2018-04-08T03:08:07.277Z,82.40
2018-04-08T03:10:35.596Z,82.30
2018-04-08T03:13:03.932Z,82.40
2018-04-08T03:15:32.251Z,82.50
2018-04-08T03:18:00.586Z,82.70
2018-04-08T03:20:28.887Z,82.50
2018-04-08T03:22:57.221Z,82.30
2018-04-08T03:25:25.538Z,82.20
2018-04-08T03:27:53.872Z,82.20
2018-04-08T03:30:22.182Z,82.00
2018-04-08T03:32:50.521Z,81.90
2018-04-08T03:35:18.834Z,81.70
2018-04-08T03:37:47.176Z,81.70
2018-04-08T03:40:15.497Z,81.90
2018-04-08T03:42:43.844Z,82.00
2018-04-08T03:45:12.153Z,82.00
2018-04-08T03:47:40.488Z,81.90
2018-04-08T03:50:08.850Z,82.00
2018-04-08T03:52:37.176Z,82.10
2018-04-08T03:55:05.499Z,82.20
2018-04-08T03:57:33.831Z,82.50
2018-04-08T04:00:02.152Z,82.70
2018-04-08T04:02:30.495Z,82.90
2018-04-08T04:04:58.812Z,82.90
2018-04-08T04:07:27.147Z,83.00
2018-04-08T04:09:55.466Z,83.20
2018-04-08T04:12:23.804Z,83.30
2018-04-08T04:14:52.115Z,83.30
2018-04-08T04:17:20.433Z,83.30
2018-04-08T04:20:00.736Z,83.30
2018-04-08T04:22:40.892Z,83.50
2018-04-08T04:25:25.725Z,83.60
2018-04-08T04:27:54.082Z,83.70
2018-04-08T04:30:22.411Z,83.90
2018-04-08T04:32:50.750Z,83.80
2018-04-08T04:35:19.109Z,83.70
2018-04-08T04:37:47.461Z,83.80
2018-04-08T04:40:15.778Z,83.80
2018-04-08T04:42:44.091Z,84.00
2018-04-08T04:45:12.418Z,84.30
2018-04-08T04:47:40.725Z,84.50
2018-04-08T04:50:09.062Z,84.60
2018-04-08T04:52:37.376Z,84.80
2018-04-08T04:55:05.704Z,84.90
2018-04-08T04:57:34.029Z,84.90
2018-04-08T05:00:02.360Z,84.60
2018-04-08T05:02:30.672Z,85.10
2018-04-08T05:04:59.012Z,84.20
2018-04-08T05:07:27.328Z,83.90
2018-04-08T05:09:55.662Z,83.80
2018-04-08T05:12:23.974Z,83.70
2018-04-08T05:14:52.311Z,83.60
2018-04-08T05:17:20.619Z,83.50
2018-04-08T05:19:48.955Z,83.50
2018-04-08T05:22:17.268Z,83.50
2018-04-08T05:24:45.606Z,83.20
2018-04-08T05:27:13.914Z,82.80
2018-04-08T05:29:42.264Z,82.50
2018-04-08T05:32:10.577Z,82.00
2018-04-08T05:34:38.907Z,81.70
2018-04-08T05:37:07.231Z,81.30
2018-04-08T05:39:35.568Z,81.10
2018-04-08T05:42:03.873Z,81.00
2018-04-08T05:44:32.211Z,80.80
2018-04-08T05:47:00.521Z,80.50
2018-04-08T05:49:28.858Z,80.50
2018-04-08T05:51:57.171Z,80.50
2018-04-08T05:54:25.510Z,80.20
2018-04-08T05:56:53.826Z,78.80
2018-04-08T05:59:22.174Z,78.50
2018-04-08T06:01:50.498Z,78.30
2018-04-08T06:04:18.862Z,78.10
2018-04-08T06:06:47.181Z,77.80
2018-04-08T06:09:15.510Z,77.70
2018-04-08T06:11:43.835Z,77.40
2018-04-08T06:14:12.155Z,77.20
2018-04-08T06:16:40.502Z,77.00
2018-04-08T06:19:08.830Z,76.80
2018-04-08T06:21:37.181Z,76.50
2018-04-08T06:24:05.502Z,76.70
2018-04-08T06:26:33.840Z,76.00
2018-04-08T06:29:02.159Z,75.90
2018-04-08T06:31:30.498Z,75.70
2018-04-08T06:33:58.831Z,75.20
2018-04-08T06:36:27.165Z,74.80
2018-04-08T06:38:55.479Z,74.60
2018-04-08T06:41:23.820Z,74.40
2018-04-08T06:43:52.145Z,74.00
2018-04-08T06:46:20.488Z,73.80
2018-04-08T06:48:48.808Z,73.70
2018-04-08T06:51:17.147Z,74.30
2018-04-08T06:53:45.512Z,73.00
2018-04-08T06:56:13.851Z,72.60
2018-04-08T06:58:42.159Z,72.40
2018-04-08T07:01:10.498Z,72.40
2018-04-08T07:03:38.818Z,72.50
2018-04-08T07:06:07.183Z,72.20
2018-04-08T07:08:35.495Z,71.70
2018-04-08T07:11:03.842Z,71.30
2018-04-08T07:13:32.164Z,70.70
2018-04-08T07:16:00.498Z,70.40
2018-04-08T07:18:28.842Z,70.00
2018-04-08T07:20:57.175Z,69.70
2018-04-08T07:23:25.497Z,69.20
2018-04-08T07:25:53.831Z,68.80
2018-04-08T07:28:22.153Z,68.30
2018-04-08T07:30:50.482Z,67.80
2018-04-08T07:33:18.798Z,67.50
2018-04-08T07:35:47.191Z,66.80
2018-04-08T07:38:15.511Z,66.40
2018-04-08T07:40:43.860Z,65.70
2018-04-08T07:43:12.183Z,64.80
2018-04-08T07:45:40.528Z,64.10
2018-04-08T07:48:08.846Z,63.30
2018-04-08T07:50:37.194Z,62.20
2018-04-08T07:53:05.542Z,62.10
2018-04-08T07:55:33.878Z,61.80
2018-04-08T07:58:02.203Z,61.30
2018-04-08T08:00:30.511Z,61.20
2018-04-08T08:02:58.843Z,61.20
2018-04-08T08:05:27.200Z,60.70
2018-04-08T08:07:55.531Z,60.30
2018-04-08T08:10:23.838Z,60.00
2018-04-08T08:12:52.172Z,59.50
2018-04-08T08:15:20.489Z,60.00
2018-04-08T08:17:48.843Z,59.10
2018-04-08T08:20:17.157Z,58.50
2018-04-08T08:22:45.499Z,58.40
2018-04-08T08:25:13.802Z,58.70
2018-04-08T08:27:42.132Z,58.00
2018-04-08T08:30:10.443Z,57.70
2018-04-08T08:32:38.775Z,57.50
2018-04-08T08:35:07.097Z,57.00
2018-04-08T08:37:35.432Z,56.70
2018-04-08T08:40:03.744Z,56.50
2018-04-08T08:42:32.074Z,56.20
2018-04-08T08:45:00.382Z,56.30
2018-04-08T08:47:28.716Z,56.70
2018-04-08T08:49:56.264Z,56.10
2018-04-08T08:52:24.604Z,55.60
2018-04-08T08:54:52.933Z,55.60
2018-04-08T08:57:20.526Z,55.50
2018-04-08T08:59:48.875Z,55.40
2018-04-08T09:02:17.220Z,55.00
2018-04-08T09:04:45.532Z,54.60
2018-04-08T09:07:13.870Z,53.60
2018-04-08T09:09:42.198Z,52.70
2018-04-08T09:12:10.572Z,52.20
2018-04-08T09:14:39.137Z,51.70
2018-04-08T09:17:07.474Z,51.30
2018-04-08T09:19:51.687Z,48.20
2018-04-08T09:22:38.815Z,46.50
2018-04-08T09:25:07.135Z,46.10
2018-04-08T09:27:35.481Z,45.20
2018-04-08T09:30:03.806Z,44.30
2018-04-08T09:32:32.150Z,43.80
2018-04-08T09:35:00.472Z,43.70
2018-04-08T09:37:28.816Z,43.30
2018-04-08T09:39:57.139Z,42.40
2018-04-08T09:42:25.471Z,41.20
2018-04-08T09:44:53.787Z,40.40
2018-04-08T09:47:22.142Z,39.70
2018-04-08T09:49:50.539Z,39.00
2018-04-08T09:52:18.897Z,38.90
2018-04-08T09:54:47.220Z,38.50
2018-04-08T09:57:15.567Z,38.80
2018-04-08T09:59:43.893Z,39.00
2018-04-08T10:02:31.119Z,38.30
2018-04-08T10:04:59.446Z,39.00
2018-04-08T10:07:27.783Z,39.20
2018-04-08T10:09:56.103Z,38.60
2018-04-08T10:12:24.416Z,37.60
2018-04-08T10:14:52.755Z,37.30
2018-04-08T10:17:21.069Z,38.40
2018-04-08T10:19:49.412Z,38.80
2018-04-08T10:22:17.727Z,38.60
2018-04-08T10:24:46.062Z,37.80
2018-04-08T10:27:14.369Z,37.30
2018-04-08T10:29:42.724Z,37.50
2018-04-08T10:32:11.063Z,37.30
2018-04-08T10:34:39.397Z,36.90
2018-04-08T10:37:07.707Z,37.40
2018-04-08T10:39:36.040Z,36.50
2018-04-08T10:42:04.352Z,35.00
2018-04-08T10:44:32.704Z,34.50
2018-04-08T10:47:01.017Z,34.40
2018-04-08T10:49:29.360Z,34.30
2018-04-08T10:51:57.671Z,34.00
2018-04-08T10:54:26.005Z,33.60
2018-04-08T10:56:54.323Z,33.40
2018-04-08T10:59:22.664Z,32.50
2018-04-08T11:01:50.985Z,33.10
2018-04-08T11:04:19.326Z,33.60
2018-04-08T11:06:47.642Z,33.70
2018-04-08T11:09:15.981Z,33.70
2018-04-08T11:11:44.308Z,33.60
2018-04-08T11:14:12.641Z,33.00
2018-04-08T11:16:40.954Z,32.90
2018-04-08T11:19:09.287Z,33.40
2018-04-08T11:21:37.611Z,33.40
2018-04-08T11:24:05.939Z,33.30
2018-04-08T11:26:34.251Z,33.10
2018-04-08T11:29:02.589Z,32.70
2018-04-08T11:31:30.910Z,32.70
2018-04-08T11:33:59.231Z,32.50
2018-04-08T11:36:27.566Z,32.50
2018-04-08T11:38:55.883Z,32.30
2018-04-08T11:41:24.218Z,32.30
2018-04-08T11:43:52.552Z,32.00
2018-04-08T11:46:20.891Z,31.40
2018-04-08T11:48:49.207Z,31.30
2018-04-08T11:51:17.545Z,31.20
2018-04-08T11:53:45.860Z,31.00
2018-04-08T11:56:14.199Z,30.90
2018-04-08T11:58:42.508Z,30.00
2018-04-08T12:01:12.952Z,29.10
2018-04-08T12:03:41.258Z,28.80
2018-04-08T12:06:10.465Z,28.70
2018-04-08T12:08:39.630Z,28.50
2018-04-08T12:11:07.974Z,27.60
2018-04-08T12:13:35.832Z,26.50
2018-04-08T12:16:04.171Z,25.70
2018-04-08T12:18:32.054Z,25.00
2018-04-08T12:21:00.387Z,25.00
2018-04-08T12:23:28.703Z,24.70
2018-04-08T12:25:57.099Z,25.00
2018-04-08T12:28:25.411Z,25.10
2018-04-08T12:30:53.758Z,24.80
2018-04-08T12:33:22.086Z,24.30
2018-04-08T12:35:50.423Z,24.60
2018-04-08T12:38:18.758Z,25.20
2018-04-08T12:40:47.101Z,25.30
2018-04-08T12:43:15.413Z,24.20
2018-04-08T12:45:43.738Z,24.90
2018-04-08T12:48:12.060Z,24.30
2018-04-08T12:50:40.411Z,24.20
2018-04-08T12:53:08.718Z,23.70
2018-04-08T12:55:37.048Z,24.60
2018-04-08T12:58:05.365Z,24.20
2018-04-08T13:00:33.742Z,24.40
2018-04-08T13:03:02.049Z,24.60
2018-04-08T13:05:30.379Z,24.50
2018-04-08T13:07:58.691Z,24.20
2018-04-08T13:10:27.164Z,23.80
2018-04-08T13:12:55.688Z,23.40
2018-04-08T13:15:24.056Z,23.60
2018-04-08T13:17:52.401Z,23.50
2018-04-08T13:20:20.721Z,23.30
2018-04-08T13:22:49.051Z,23.90
2018-04-08T13:25:17.368Z,24.50
2018-04-08T13:27:45.695Z,24.30
2018-04-08T13:30:14.013Z,23.90
2018-04-08T13:32:42.348Z,24.60
2018-04-08T13:35:10.657Z,24.10
2018-04-08T13:37:38.990Z,24.00
2018-04-08T13:40:07.299Z,24.00
2018-04-08T13:42:35.628Z,24.10
2018-04-08T13:45:03.936Z,23.90
2018-04-08T13:47:32.277Z,23.30
2018-04-08T13:50:00.592Z,23.90
2018-04-08T13:52:28.923Z,23.90
2018-04-08T13:54:57.240Z,24.00
2018-04-08T13:57:25.573Z,23.70
2018-04-08T13:59:53.879Z,23.80
2018-04-08T14:02:22.208Z,24.00
2018-04-08T14:04:50.526Z,24.10
2018-04-08T14:07:18.860Z,24.20
2018-04-08T14:09:47.177Z,24.20
2018-04-08T14:12:15.515Z,24.60
2018-04-08T14:14:43.843Z,25.00
2018-04-08T14:17:12.172Z,25.00
2018-04-08T14:19:40.480Z,24.80
2018-04-08T14:22:08.810Z,25.40
2018-04-08T14:24:37.171Z,25.10
2018-04-08T14:27:05.478Z,24.70
2018-04-08T14:29:33.782Z,24.90
2018-04-08T14:32:02.120Z,25.40
2018-04-08T14:34:30.439Z,26.30
2018-04-08T14:36:58.772Z,25.50
2018-04-08T14:39:27.079Z,25.30
2018-04-08T14:41:55.411Z,25.40
2018-04-08T14:44:23.720Z,25.60
2018-04-08T14:46:52.091Z,25.70
2018-04-08T14:49:20.402Z,25.90
2018-04-08T14:51:48.728Z,25.30
2018-04-08T14:54:17.038Z,25.20
2018-04-08T14:56:45.389Z,25.00
2018-04-08T14:59:13.718Z,24.70
2018-04-08T15:01:46.663Z,24.80
2018-04-08T15:04:10.389Z,25.60
2018-04-08T15:06:38.694Z,24.70
2018-04-08T15:09:07.043Z,25.00
2018-04-08T15:11:35.361Z,25.20
2018-04-08T15:14:03.704Z,24.50
2018-04-08T15:16:32.020Z,24.90
2018-04-08T15:19:00.354Z,25.00
2018-04-08T15:21:28.664Z,24.90
2018-04-08T15:23:56.999Z,24.20
2018-04-08T15:26:25.310Z,24.40
2018-04-08T15:28:53.636Z,24.10
2018-04-08T15:31:21.954Z,24.00
2018-04-08T15:33:50.288Z,24.00
2018-04-08T15:36:18.828Z,23.80
2018-04-08T15:38:47.172Z,23.80
2018-04-08T15:41:15.497Z,23.60
2018-04-08T15:43:43.371Z,23.80
2018-04-08T15:46:11.683Z,24.50
2018-04-08T15:48:40.021Z,24.10
2018-04-08T15:51:08.334Z,24.70
2018-04-08T15:53:36.674Z,24.40
2018-04-08T15:56:04.983Z,24.30
2018-04-08T15:58:33.316Z,24.60
2018-04-08T16:01:01.640Z,24.60
2018-04-08T16:03:29.989Z,24.80
2018-04-08T16:05:58.296Z,24.70
2018-04-08T16:08:26.161Z,24.60
2018-04-08T16:10:54.471Z,24.50
2018-04-08T16:13:22.794Z,24.90
2018-04-08T16:15:51.153Z,24.80
2018-04-08T16:18:19.486Z,25.00
2018-04-08T16:20:47.811Z,25.40
2018-04-08T16:23:16.142Z,25.70
2018-04-08T16:25:44.455Z,26.00
2018-04-08T16:28:12.789Z,25.80
2018-04-08T16:30:41.103Z,26.10
2018-04-08T16:33:09.431Z,26.90
2018-04-08T16:35:37.744Z,26.60
2018-04-08T16:38:06.054Z,27.10
2018-04-08T16:40:34.392Z,27.30
2018-04-08T16:43:02.702Z,27.80
2018-04-08T16:45:31.039Z,27.60
2018-04-08T16:47:59.348Z,27.60
2018-04-08T16:50:27.682Z,28.10
2018-04-08T16:52:56.003Z,28.00
2018-04-08T16:55:24.338Z,27.80
2018-04-08T16:57:52.670Z,27.90
2018-04-08T17:00:21.012Z,27.50
2018-04-08T17:02:49.327Z,27.50
2018-04-08T17:05:17.656Z,27.80
2018-04-08T17:07:45.966Z,27.50
2018-04-08T17:10:14.303Z,27.30
2018-04-08T17:12:42.612Z,27.00
2018-04-08T17:15:10.952Z,26.60
2018-04-08T17:17:39.254Z,26.20
2018-04-08T17:20:07.593Z,26.40
2018-04-08T17:22:35.911Z,26.30
2018-04-08T17:25:04.234Z,26.10
2018-04-08T17:27:32.567Z,26.20
2018-04-08T17:30:00.904Z,26.40
2018-04-08T17:32:29.218Z,26.60
2018-04-08T17:34:57.555Z,27.40
2018-04-08T17:37:25.868Z,27.50
2018-04-08T17:39:54.201Z,28.50
2018-04-08T17:42:22.543Z,30.10
2018-04-08T17:44:50.879Z,31.70
2018-04-08T17:47:19.202Z,32.80
2018-04-08T17:49:47.531Z,33.70
2018-04-08T17:52:15.855Z,34.60
2018-04-08T17:54:44.203Z,35.00
2018-04-08T17:57:12.513Z,35.70
2018-04-08T17:59:40.851Z,36.20
2018-04-08T18:02:09.164Z,37.50
2018-04-08T18:04:37.498Z,37.40
2018-04-08T18:07:05.816Z,37.70
2018-04-08T18:09:34.171Z,38.20
2018-04-08T18:12:02.483Z,38.60
2018-04-08T18:14:30.836Z,39.10
2018-04-08T18:16:59.175Z,39.30
2018-04-08T18:19:27.579Z,39.30
2018-04-08T18:21:55.914Z,39.50
2018-04-08T18:24:24.269Z,39.80
2018-04-08T18:26:52.627Z,40.30
2018-04-08T18:29:20.949Z,40.70
2018-04-08T18:31:49.306Z,41.00
2018-04-08T18:34:17.665Z,41.40
2018-04-08T18:36:46.003Z,42.10
2018-04-08T18:39:14.311Z,42.50
2018-04-08T18:41:42.707Z,42.70
2018-04-08T18:44:11.028Z,43.30
2018-04-08T18:46:39.359Z,44.00
2018-04-08T18:49:07.680Z,44.80
2018-04-08T18:51:36.014Z,45.40
2018-04-08T18:54:04.343Z,45.80
2018-04-08T18:56:32.676Z,46.50
2018-04-08T18:59:00.991Z,46.90
2018-04-08T19:01:29.344Z,47.30
2018-04-08T19:03:57.651Z,47.70
2018-04-08T19:06:25.991Z,47.80
2018-04-08T19:08:54.307Z,48.10
2018-04-08T19:11:22.695Z,48.30
2018-04-08T19:13:51.007Z,48.30
2018-04-08T19:16:19.368Z,48.80
2018-04-08T19:18:47.775Z,49.10
2018-04-08T19:21:16.210Z,49.40
2018-04-08T19:23:48.351Z,49.80
2018-04-08T19:26:16.720Z,50.10
2018-04-08T19:28:45.087Z,50.40
2018-04-08T19:31:13.423Z,50.50
2018-04-08T19:33:41.747Z,50.50
2018-04-08T19:36:10.088Z,50.70
2018-04-08T19:38:38.402Z,50.70
2018-04-08T19:41:06.734Z,51.00
2018-04-08T19:43:35.057Z,51.30
2018-04-08T19:46:03.390Z,51.60
2018-04-08T19:48:31.275Z,51.70
2018-04-08T19:50:59.640Z,51.80
2018-04-08T19:53:27.959Z,51.90
2018-04-08T19:55:56.299Z,52.10
2018-04-08T19:58:24.607Z,52.60
2018-04-08T20:00:52.976Z,52.90
2018-04-08T20:03:21.349Z,53.50
2018-04-08T20:05:49.663Z,53.50
2018-04-08T20:08:18.001Z,53.70
2018-04-08T20:10:46.315Z,54.00
2018-04-08T20:13:13.895Z,53.90
2018-04-08T20:15:42.261Z,54.10
2018-04-08T20:18:10.650Z,54.10
2018-04-08T20:20:38.931Z,54.40
2018-04-08T20:23:07.303Z,54.60
2018-04-08T20:25:35.619Z,54.80
2018-04-08T20:28:03.946Z,55.10
2018-04-08T20:30:32.266Z,55.60
2018-04-08T20:33:00.609Z,56.00
2018-04-08T20:35:28.924Z,56.30
2018-04-08T20:37:57.266Z,56.60
2018-04-08T20:40:25.120Z,56.60
2018-04-08T20:42:53.463Z,56.80
2018-04-08T20:45:21.775Z,57.00
2018-04-08T20:47:50.838Z,57.70
2018-04-08T20:50:19.160Z,58.30
2018-04-08T20:52:47.496Z,58.80
2018-04-08T20:55:15.807Z,59.30
2018-04-08T20:57:44.135Z,59.40
2018-04-08T21:00:12.443Z,59.70
2018-04-08T21:02:40.769Z,59.80
2018-04-08T21:05:09.089Z,59.80
2018-04-08T21:07:37.415Z,59.70
2018-04-08T21:10:05.723Z,59.80
2018-04-08T21:12:34.074Z,60.00
2018-04-08T21:15:02.413Z,60.70
2018-04-08T21:17:30.758Z,60.60
2018-04-08T21:19:59.081Z,60.80
2018-04-08T21:22:27.416Z,61.80
2018-04-08T21:24:55.746Z,62.00
2018-04-08T21:27:24.087Z,62.10
2018-04-08T21:29:52.412Z,62.00
2018-04-08T21:32:20.760Z,61.90
2018-04-08T21:34:49.091Z,62.30
2018-04-08T21:37:17.432Z,62.20
2018-04-08T21:39:45.753Z,62.70
2018-04-08T21:42:14.088Z,62.60
2018-04-08T21:44:42.408Z,62.70
2018-04-08T21:47:10.752Z,62.80
2018-04-08T21:49:39.087Z,63.00
2018-04-08T21:52:07.414Z,63.40
2018-04-08T21:54:35.761Z,63.50
2018-04-08T21:57:04.088Z,63.80
2018-04-08T21:59:32.436Z,64.50
2018-04-08T22:02:00.765Z,65.20
2018-04-08T22:04:29.103Z,65.10
2018-04-08T22:06:57.420Z,65.30
2018-04-08T22:09:25.758Z,65.80
2018-04-08T22:11:54.080Z,66.20
2018-04-08T22:14:22.422Z,66.60
2018-04-08T22:16:50.747Z,66.90
2018-04-08T22:19:19.092Z,67.10
2018-04-08T22:21:47.419Z,67.40
2018-04-08T22:24:15.752Z,67.70
2018-04-08T22:26:44.076Z,67.90
2018-04-08T22:29:12.411Z,67.50
2018-04-08T22:31:40.728Z,67.10
2018-04-08T22:34:08.308Z,67.10
2018-04-08T22:36:36.620Z,66.80
2018-04-08T22:39:05.711Z,66.80
2018-04-08T22:41:34.031Z,67.00
2018-04-08T22:44:02.371Z,67.30
2018-04-08T22:46:30.688Z,67.00
2018-04-08T22:48:59.023Z,66.70
2018-04-08T22:51:27.336Z,66.80
2018-04-08T22:53:55.676Z,67.10
2018-04-08T22:56:23.993Z,67.30
2018-04-08T22:58:52.334Z,67.60
2018-04-08T23:01:20.654Z,67.60
2018-04-08T23:03:49.015Z,67.90
2018-04-08T23:06:17.329Z,68.30
2018-04-08T23:08:45.681Z,68.40
2018-04-08T23:11:14.028Z,68.30
2018-04-08T23:13:42.362Z,68.00
2018-04-08T23:16:10.671Z,67.90
2018-04-08T23:18:39.011Z,68.10
2018-04-08T23:21:07.340Z,68.20
2018-04-08T23:23:35.681Z,68.30
2018-04-08T23:26:03.993Z,68.60
2018-04-08T23:28:32.340Z,69.10
2018-04-08T23:31:00.659Z,69.10
2018-04-08T23:33:28.968Z,69.10
2018-04-08T23:35:57.306Z,69.10
2018-04-08T23:38:25.623Z,69.00
2018-04-08T23:40:53.960Z,68.80
2018-04-08T23:43:22.274Z,69.40
2018-04-08T23:45:50.621Z,68.80
2018-04-08T23:48:18.970Z,69.20
2018-04-08T23:50:47.303Z,70.90
2018-04-08T23:53:15.636Z,71.30
2018-04-08T23:55:43.985Z,71.60
2018-04-08T23:58:12.296Z,72.10
